createdAt,value
2019-06-08T00:00:13.086Z,31.12
2019-06-08T00:02:18.377Z,28.80
2019-06-08T00:04:22.868Z,31.55
2019-06-08T00:06:27.036Z,30.95
2019-06-08T00:08:30.958Z,29.50
2019-06-08T00:10:34.981Z,30.92
2019-06-08T00:12:39.065Z,30.00
2019-06-08T00:14:43.066Z,29.18
2019-06-08T00:16:47.075Z,30.40
2019-06-08T00:18:50.948Z,32.45
2019-06-08T00:20:54.781Z,30.72
2019-06-08T00:22:58.794Z,30.43
2019-06-08T00:25:02.818Z,31.05
2019-06-08T00:27:06.907Z,31.10
2019-06-08T00:29:10.837Z,30.23
2019-06-08T00:31:15.321Z,32.05
2019-06-08T00:33:20.500Z,31.25
2019-06-08T00:35:24.915Z,31.50
2019-06-08T00:37:29.003Z,31.95
2019-06-08T00:39:33.000Z,32.13
2019-06-08T00:41:37.316Z,31.17
2019-06-08T00:43:41.131Z,32.80
2019-06-08T00:45:45.031Z,32.85
2019-06-08T00:47:49.031Z,33.30
2019-06-08T00:49:53.040Z,32.63
2019-06-08T00:51:56.865Z,31.73
2019-06-08T00:54:00.852Z,35.03
2019-06-08T00:56:04.959Z,34.35
2019-06-08T00:58:09.072Z,35.85
2019-06-08T01:03:06.382Z,36.85
2019-06-08T01:05:10.651Z,37.95
2019-06-08T01:07:14.560Z,34.65
2019-06-08T01:09:20.174Z,35.48
2019-06-08T01:11:24.753Z,35.88
2019-06-08T01:13:29.063Z,35.88
2019-06-08T01:15:34.456Z,35.17
2019-06-08T01:17:38.376Z,32.90
2019-06-08T01:19:42.397Z,33.50
2019-06-08T01:21:46.464Z,35.48
2019-06-08T01:23:50.510Z,34.08
2019-06-08T01:25:54.518Z,34.48
2019-06-08T01:27:58.527Z,36.70
2019-06-08T01:30:02.381Z,35.05
2019-06-08T01:32:06.428Z,34.33
2019-06-08T01:34:10.432Z,34.30
2019-06-08T01:36:14.294Z,33.13
2019-06-08T01:38:18.254Z,33.30
2019-06-08T01:40:23.238Z,34.70
2019-06-08T01:42:27.760Z,33.60
2019-06-08T01:44:33.770Z,34.70
2019-06-08T01:46:37.319Z,35.03
2019-06-08T01:48:41.559Z,33.80
2019-06-08T01:50:45.522Z,34.13
2019-06-08T01:52:49.590Z,34.13
2019-06-08T01:54:53.491Z,33.55
2019-06-08T01:56:57.497Z,34.60
2019-06-08T01:59:01.402Z,36.42
2019-06-08T02:01:05.379Z,33.55
2019-06-08T02:03:09.322Z,35.55
2019-06-08T02:05:13.434Z,34.67
2019-06-08T02:07:17.495Z,36.33
2019-06-08T02:09:21.510Z,36.13
2019-06-08T02:11:26.611Z,35.10
2019-06-08T02:13:31.050Z,37.25
2019-06-08T02:15:35.389Z,37.03
2019-06-08T02:17:39.573Z,36.55
2019-06-08T02:19:43.633Z,36.15
2019-06-08T02:21:47.534Z,38.53
2019-06-08T02:23:51.541Z,36.73
2019-06-08T02:25:55.579Z,35.73
2019-06-08T02:27:59.601Z,37.38
2019-06-08T02:30:05.272Z,37.25
2019-06-08T02:32:09.320Z,35.25
2019-06-08T02:34:25.545Z,36.10
2019-06-08T02:36:31.086Z,35.33
2019-06-08T02:38:36.068Z,34.27
2019-06-08T02:40:40.258Z,34.95
2019-06-08T02:42:44.212Z,33.13
2019-06-08T02:44:49.990Z,33.85
2019-06-08T02:46:53.700Z,34.67
2019-06-08T02:49:04.082Z,33.33
2019-06-08T02:51:03.505Z,34.08
2019-06-08T02:53:07.467Z,34.27
2019-06-08T02:55:12.393Z,35.55
2019-06-08T02:57:17.989Z,34.95
2019-06-08T02:59:23.856Z,34.20
2019-06-08T03:01:31.300Z,34.08
2019-06-08T03:03:38.351Z,34.88
2019-06-08T03:05:42.519Z,33.67
2019-06-08T03:07:49.344Z,33.83
2019-06-08T03:09:55.549Z,35.05
2019-06-08T03:12:02.739Z,34.67
2019-06-08T03:14:06.725Z,35.40
2019-06-08T03:16:10.612Z,37.65
2019-06-08T03:18:14.758Z,34.67
2019-06-08T03:20:18.627Z,35.17
2019-06-08T03:22:22.701Z,36.55
2019-06-08T03:24:26.924Z,37.73
2019-06-08T03:26:32.127Z,40.40
2019-06-08T03:28:37.349Z,39.27
2019-06-08T03:30:53.029Z,39.48
2019-06-08T03:32:55.993Z,38.83
2019-06-08T03:34:56.226Z,38.00
2019-06-08T03:36:58.712Z,39.63
2019-06-08T03:39:02.545Z,37.20
2019-06-08T03:41:06.558Z,39.33
2019-06-08T03:43:11.141Z,39.05
2019-06-08T03:45:15.092Z,39.63
2019-06-08T03:47:19.165Z,39.33
2019-06-08T03:49:40.466Z,39.55
2019-06-08T03:51:28.542Z,39.45
2019-06-08T03:53:32.450Z,37.70
2019-06-08T03:55:37.947Z,37.10
2019-06-08T03:57:42.127Z,38.05
2019-06-08T03:59:47.641Z,39.03
2019-06-08T04:01:51.713Z,37.95
2019-06-08T04:03:59.783Z,39.65
2019-06-08T04:06:01.175Z,37.45
2019-06-08T04:08:05.226Z,41.55
2019-06-08T04:10:09.319Z,40.52
2019-06-08T04:12:13.390Z,42.95
2019-06-08T04:14:17.398Z,41.48
2019-06-08T04:16:26.731Z,42.25
2019-06-08T04:18:30.739Z,40.73
2019-06-08T04:20:34.692Z,39.03
2019-06-08T04:22:42.280Z,39.75
2019-06-08T04:24:46.714Z,40.78
2019-06-08T04:26:50.967Z,38.50
2019-06-08T04:28:54.880Z,41.05
2019-06-08T04:30:59.012Z,40.52
2019-06-08T04:33:06.167Z,41.85
2019-06-08T04:35:10.379Z,44.27
2019-06-08T04:37:16.662Z,43.73
2019-06-08T04:39:20.904Z,42.35
2019-06-08T04:41:26.496Z,43.15
2019-06-08T04:43:30.747Z,41.95
2019-06-08T04:45:34.923Z,43.68
2019-06-08T04:47:40.738Z,43.40
2019-06-08T04:49:44.923Z,44.50
2019-06-08T04:51:50.262Z,45.95
2019-06-08T04:53:54.179Z,43.23
2019-06-08T04:55:58.344Z,45.10
2019-06-08T04:58:02.348Z,47.88
2019-06-08T05:00:13.085Z,45.63
2019-06-08T05:02:14.199Z,44.63
2019-06-08T05:04:18.168Z,42.27
2019-06-08T05:06:22.370Z,42.35
2019-06-08T05:08:26.479Z,34.50
2019-06-08T05:10:31.818Z,33.15
2019-06-08T05:12:35.838Z,30.37
2019-06-08T05:14:41.008Z,29.57
2019-06-08T05:16:45.353Z,30.23
2019-06-08T05:18:49.872Z,28.70
2019-06-08T05:20:57.016Z,27.80
2019-06-08T05:23:02.840Z,27.67
2019-06-08T05:25:07.143Z,26.90
2019-06-08T05:27:11.041Z,25.72
2019-06-08T05:29:15.093Z,24.00
2019-06-08T05:31:19.308Z,23.32
2019-06-08T05:33:23.272Z,22.07
2019-06-08T05:35:27.214Z,21.25
2019-06-08T05:37:31.336Z,19.37
2019-06-08T05:39:35.261Z,19.70
2019-06-08T05:41:39.420Z,18.85
2019-06-08T05:43:43.609Z,16.40
2019-06-08T05:45:48.395Z,15.80
2019-06-08T05:47:52.556Z,15.00
2019-06-08T05:49:56.416Z,14.03
2019-06-08T05:52:00.471Z,13.43
2019-06-08T05:54:04.475Z,13.22
2019-06-08T05:56:08.390Z,12.47
2019-06-08T05:58:12.336Z,11.50
2019-06-08T06:00:16.800Z,11.95
2019-06-08T06:02:20.752Z,11.48
2019-06-08T06:04:24.825Z,11.10
2019-06-08T06:06:28.741Z,10.70
2019-06-08T06:08:32.735Z,11.48
2019-06-08T06:10:36.676Z,10.32
2019-06-08T06:12:40.915Z,9.65
2019-06-08T06:14:45.025Z,9.83
2019-06-08T06:16:49.168Z,9.90
2019-06-08T06:18:53.183Z,8.78
2019-06-08T06:21:10.422Z,8.58
2019-06-08T06:23:03.251Z,8.58
2019-06-08T06:25:09.252Z,8.83
2019-06-08T06:27:13.195Z,9.33
2019-06-08T06:29:17.325Z,8.75
2019-06-08T06:31:21.152Z,8.40
2019-06-08T06:33:25.091Z,8.33
2019-06-08T06:35:29.044Z,8.35
2019-06-08T06:37:33.023Z,7.83
2019-06-08T06:39:36.958Z,8.00
2019-06-08T06:41:41.865Z,7.20
2019-06-08T06:43:45.995Z,7.85
2019-06-08T06:45:50.137Z,7.53
2019-06-08T06:47:54.573Z,7.85
2019-06-08T06:49:58.578Z,7.60
2019-06-08T06:52:02.628Z,7.20
2019-06-08T06:54:06.615Z,7.00
2019-06-08T06:56:10.549Z,6.75
2019-06-08T06:58:14.414Z,6.33
2019-06-08T07:00:21.329Z,6.85
2019-06-08T07:02:26.140Z,6.80
2019-06-08T07:04:30.012Z,6.35
2019-06-08T07:06:33.928Z,6.33
2019-06-08T07:08:37.906Z,7.00
2019-06-08T07:10:42.081Z,6.95
2019-06-08T07:12:46.563Z,6.25
2019-06-08T07:14:51.330Z,6.60
2019-06-08T07:16:56.117Z,6.05
2019-06-08T07:19:00.112Z,6.37
2019-06-08T07:21:04.061Z,5.87
2019-06-08T07:23:07.964Z,6.08
2019-06-08T07:25:12.020Z,5.05
2019-06-08T07:27:16.133Z,5.67
2019-06-08T07:29:20.095Z,5.58
2019-06-08T07:31:23.995Z,5.67
2019-06-08T07:33:28.119Z,5.05
2019-06-08T07:35:32.820Z,4.67
2019-06-08T07:37:36.880Z,4.85
2019-06-08T07:39:40.989Z,4.47
2019-06-08T07:41:45.057Z,4.90
2019-06-08T07:43:49.670Z,4.58
2019-06-08T07:45:56.231Z,4.30
2019-06-08T07:48:00.653Z,4.70
2019-06-08T07:50:06.797Z,4.45
2019-06-08T07:52:11.102Z,4.30
2019-06-08T07:54:15.307Z,3.98
2019-06-08T07:56:19.258Z,4.60
2019-06-08T07:58:23.089Z,5.12
2019-06-08T08:00:27.170Z,4.92
2019-06-08T08:02:31.119Z,4.67
2019-06-08T08:04:35.185Z,4.37
2019-06-08T08:06:39.189Z,4.17
2019-06-08T08:08:43.204Z,3.83
2019-06-08T08:10:48.272Z,4.08
2019-06-08T08:12:52.722Z,3.95
2019-06-08T08:14:58.058Z,3.67
2019-06-08T08:17:02.449Z,3.67
2019-06-08T08:19:06.267Z,4.00
2019-06-08T08:21:21.243Z,3.42
2019-06-08T08:23:17.326Z,3.67
2019-06-08T08:25:21.505Z,2.85
2019-06-08T08:27:27.945Z,3.40
2019-06-08T08:29:31.462Z,3.17
2019-06-08T08:31:37.411Z,3.02
2019-06-08T08:33:41.151Z,3.10
2019-06-08T08:35:45.127Z,3.02
2019-06-08T08:37:53.094Z,2.58
2019-06-08T08:39:55.587Z,3.00
2019-06-08T08:42:04.784Z,2.98
2019-06-08T08:44:07.985Z,2.90
2019-06-08T08:46:11.822Z,2.58
2019-06-08T08:48:25.304Z,2.60
2019-06-08T08:50:21.394Z,2.72
2019-06-08T08:52:36.266Z,3.08
2019-06-08T08:54:31.026Z,3.30
2019-06-08T08:56:35.038Z,2.75
2019-06-08T08:58:38.940Z,2.45
2019-06-08T09:00:42.901Z,2.42
2019-06-08T09:02:48.912Z,2.20
2019-06-08T09:04:53.470Z,2.02
2019-06-08T09:07:03.313Z,1.90
2019-06-08T09:09:05.280Z,1.67
2019-06-08T09:11:09.184Z,2.35
2019-06-08T09:13:13.186Z,1.77
2019-06-08T09:15:19.212Z,1.65
2019-06-08T09:17:23.098Z,1.80
2019-06-08T09:19:28.051Z,1.90
2019-06-08T09:21:32.155Z,1.70
2019-06-08T09:23:37.803Z,1.62
2019-06-08T09:25:48.259Z,1.92
2019-06-08T09:27:53.267Z,1.90
2019-06-08T09:30:00.887Z,1.45
2019-06-08T09:32:03.593Z,1.57
2019-06-08T09:34:14.198Z,1.87
2019-06-08T09:36:13.650Z,3.58
2019-06-08T09:38:18.639Z,1.32
2019-06-08T09:40:22.847Z,1.70
2019-06-08T09:42:28.486Z,1.50
2019-06-08T09:44:33.880Z,1.50
2019-06-08T09:46:38.484Z,1.20
2019-06-08T09:48:48.682Z,2.33
2019-06-08T09:50:53.050Z,1.45
2019-06-08T09:53:14.964Z,1.27
2019-06-08T09:55:05.796Z,1.02
2019-06-08T09:57:09.343Z,1.32
2019-06-08T09:59:15.354Z,1.30
2019-06-08T10:01:19.725Z,1.22
2019-06-08T10:03:23.726Z,1.67
2019-06-08T10:05:27.845Z,1.17
2019-06-08T10:07:31.790Z,1.20
2019-06-08T10:09:37.985Z,1.52
2019-06-08T10:11:41.407Z,1.15
2019-06-08T10:13:47.652Z,1.20
2019-06-08T10:15:51.500Z,1.22
2019-06-08T10:17:56.893Z,1.30
2019-06-08T10:20:03.461Z,1.40
2019-06-08T10:22:08.631Z,1.42
2019-06-08T10:24:12.867Z,1.20
2019-06-08T10:26:17.832Z,1.85
2019-06-08T10:28:22.546Z,1.80
2019-06-08T10:30:28.355Z,1.42
2019-06-08T10:32:32.159Z,1.42
2019-06-08T10:34:38.626Z,1.10
2019-06-08T10:36:42.287Z,1.30
2019-06-08T10:38:47.957Z,1.10
2019-06-08T10:41:15.730Z,1.05
2019-06-08T10:43:09.941Z,1.32
2019-06-08T10:45:14.994Z,1.10
2019-06-08T10:47:19.115Z,1.30
2019-06-08T10:49:23.196Z,1.15
2019-06-08T10:51:27.592Z,1.50
2019-06-08T10:53:45.178Z,1.30
2019-06-08T10:55:37.823Z,1.50
2019-06-08T10:57:43.251Z,1.17
2019-06-08T10:59:48.610Z,1.37
2019-06-08T11:01:53.358Z,1.50
2019-06-08T11:03:58.456Z,1.30
2019-06-08T11:06:05.739Z,1.45
2019-06-08T11:08:14.111Z,1.50
2019-06-08T11:10:15.592Z,1.30
2019-06-08T11:12:19.599Z,1.95
2019-06-08T11:14:23.677Z,1.80
2019-06-08T11:16:28.711Z,1.85
2019-06-08T11:18:33.270Z,1.77
2019-06-08T11:20:38.179Z,2.00
2019-06-08T11:22:42.739Z,2.27
2019-06-08T11:24:48.592Z,2.35
2019-06-08T11:26:53.242Z,2.00
2019-06-08T11:29:05.045Z,1.98
2019-06-08T11:31:15.519Z,1.93
2019-06-08T11:33:14.932Z,2.50
2019-06-08T11:35:18.855Z,2.52
2019-06-08T11:37:22.846Z,2.55
2019-06-08T11:39:28.725Z,2.52
2019-06-08T11:41:32.414Z,2.70
2019-06-08T11:43:38.139Z,2.45
2019-06-08T11:45:41.931Z,2.33
2019-06-08T11:47:48.395Z,2.72
2019-06-08T11:49:51.429Z,2.37
2019-06-08T11:51:55.410Z,2.60
2019-06-08T11:53:59.723Z,2.08
2019-06-08T11:56:09.431Z,1.85
2019-06-08T11:58:13.643Z,2.15
2019-06-08T12:00:27.661Z,2.42
2019-06-08T12:02:28.245Z,2.87
2019-06-08T12:04:32.351Z,2.00
2019-06-08T12:06:37.744Z,2.17
2019-06-08T12:08:41.907Z,2.25
2019-06-08T12:10:49.127Z,2.00
2019-06-08T12:12:52.375Z,2.10
2019-06-08T12:14:58.215Z,2.22
2019-06-08T12:17:03.039Z,1.98
2019-06-08T12:19:11.986Z,2.10
2019-06-08T12:21:14.506Z,2.37
2019-06-08T12:23:21.629Z,2.30
2019-06-08T12:25:25.743Z,1.87
2019-06-08T12:27:33.617Z,1.80
2019-06-08T12:29:35.441Z,2.15
2019-06-08T12:31:39.299Z,2.52
2019-06-08T12:33:43.203Z,14.80
2019-06-08T12:35:47.759Z,5.37
2019-06-08T12:37:51.890Z,6.37
2019-06-08T12:39:57.981Z,3.10
2019-06-08T12:42:01.535Z,2.52
2019-06-08T12:44:07.513Z,3.27
2019-06-08T12:46:13.049Z,2.17
2019-06-08T13:00:20.102Z,4.17
2019-06-08T13:14:38.506Z,3.40
2019-06-08T13:16:42.530Z,2.55
2019-06-08T13:18:48.154Z,3.00
2019-06-08T13:20:52.092Z,3.95
2019-06-08T13:22:57.596Z,2.85
2019-06-08T13:25:15.652Z,1.05
2019-06-08T13:27:10.261Z,1.47
2019-06-08T13:29:13.763Z,2.00
2019-06-08T13:31:21.847Z,3.20
2019-06-08T13:33:23.351Z,3.50
2019-06-08T13:35:30.443Z,4.67
2019-06-08T13:37:32.859Z,2.10
2019-06-08T13:39:38.770Z,1.95
2019-06-08T13:41:42.395Z,2.05
2019-06-08T13:43:47.797Z,1.77
2019-06-08T13:45:51.742Z,1.75
2019-06-08T13:47:55.604Z,4.37
2019-06-08T13:49:59.550Z,1.70
2019-06-08T13:52:03.462Z,2.08
2019-06-08T13:54:08.472Z,1.85
2019-06-08T13:56:12.908Z,0.90
2019-06-08T13:58:19.271Z,1.00
2019-06-08T14:00:33.380Z,11.30
2019-06-08T14:02:39.653Z,12.95
2019-06-08T14:04:45.962Z,2.72
2019-06-08T14:06:50.555Z,2.17
2019-06-08T14:08:54.362Z,1.10
2019-06-08T14:11:00.927Z,2.25
2019-06-08T14:13:04.167Z,1.50
2019-06-08T14:15:08.721Z,1.20
2019-06-08T14:17:12.744Z,1.25
2019-06-08T14:19:19.346Z,1.00
2019-06-08T14:21:29.423Z,1.30
2019-06-08T14:23:29.305Z,1.00
2019-06-08T14:25:47.059Z,1.45
2019-06-08T14:27:39.133Z,1.05
2019-06-08T14:29:43.041Z,1.00
2019-06-08T14:31:46.977Z,0.98
2019-06-08T14:33:50.957Z,2.35
2019-06-08T14:35:56.751Z,1.10
2019-06-08T14:38:00.503Z,1.90
2019-06-08T14:40:08.125Z,1.90
2019-06-08T14:42:12.406Z,1.55
2019-06-08T14:44:19.443Z,1.07
2019-06-08T14:46:23.127Z,1.40
2019-06-08T14:48:33.507Z,0.93
2019-06-08T14:50:40.420Z,1.30
2019-06-08T14:52:41.494Z,1.15
2019-06-08T14:54:48.286Z,2.10
2019-06-08T14:56:51.521Z,2.20
2019-06-08T14:58:58.053Z,2.83
2019-06-08T15:01:00.973Z,1.30
2019-06-08T15:03:07.515Z,1.20
2019-06-08T15:05:10.909Z,2.77
2019-06-08T15:07:14.936Z,5.62
2019-06-08T15:09:19.537Z,4.62
2019-06-08T15:11:23.447Z,1.30
2019-06-08T15:13:28.559Z,1.30
2019-06-08T15:15:33.015Z,1.40
2019-06-08T15:17:37.970Z,2.42
2019-06-08T15:19:42.156Z,2.00
2019-06-08T15:21:48.300Z,2.90
2019-06-08T15:23:51.807Z,2.30
2019-06-08T15:25:58.139Z,1.90
2019-06-08T15:28:01.566Z,1.25
2019-06-08T15:30:06.657Z,1.10
2019-06-08T15:32:10.606Z,1.02
2019-06-08T15:34:14.614Z,2.60
2019-06-08T15:36:20.836Z,1.02
2019-06-08T15:38:25.304Z,1.00
2019-06-08T15:40:29.883Z,1.50
2019-06-08T15:42:34.023Z,1.10
2019-06-08T15:44:38.429Z,1.30
2019-06-08T15:46:48.490Z,1.12
2019-06-08T15:48:52.498Z,1.37
2019-06-08T15:50:58.371Z,1.25
2019-06-08T15:53:02.703Z,1.02
2019-06-08T15:55:08.520Z,1.40
2019-06-08T15:57:12.440Z,1.15
2019-06-08T15:59:16.527Z,1.20
2019-06-08T16:01:20.682Z,1.45
2019-06-08T16:03:25.296Z,1.10
2019-06-08T16:05:31.673Z,1.35
2019-06-08T16:07:35.765Z,1.27
2019-06-08T16:09:39.642Z,0.93
2019-06-08T16:11:43.689Z,1.15
2019-06-08T16:13:47.757Z,1.10
2019-06-08T16:15:54.218Z,1.27
2019-06-08T16:17:58.181Z,1.20
2019-06-08T16:20:02.169Z,1.98
2019-06-08T16:22:06.196Z,1.85
2019-06-08T16:24:14.263Z,1.30
2019-06-08T16:26:19.946Z,1.52
2019-06-08T16:28:24.003Z,1.67
2019-06-08T16:30:28.835Z,2.35
2019-06-08T16:32:33.507Z,2.98
2019-06-08T16:34:37.578Z,1.27
2019-06-08T16:36:41.668Z,1.70
2019-06-08T16:38:45.573Z,2.62
2019-06-08T16:40:49.453Z,5.45
2019-06-08T16:42:54.002Z,1.40
2019-06-08T16:45:01.478Z,4.90
2019-06-08T16:47:05.693Z,2.60
2019-06-08T16:49:09.748Z,3.20
2019-06-08T16:51:13.566Z,1.80
2019-06-08T16:53:17.903Z,1.90
2019-06-08T16:55:21.879Z,5.95
2019-06-08T16:57:25.941Z,7.60
2019-06-08T16:59:30.214Z,4.15
2019-06-08T17:01:36.744Z,2.72
2019-06-08T17:03:40.936Z,1.62
2019-06-08T17:05:45.077Z,2.67
2019-06-08T17:07:49.096Z,8.50
2019-06-08T17:10:00.748Z,5.28
2019-06-08T17:12:04.645Z,4.85
2019-06-08T17:14:10.231Z,2.20
2019-06-08T17:16:14.301Z,3.25
2019-06-08T17:18:18.267Z,1.87
2019-06-08T17:20:22.322Z,5.40
2019-06-08T17:22:26.229Z,5.35
2019-06-08T17:24:30.365Z,3.80
2019-06-08T17:26:34.701Z,2.47
2019-06-08T17:28:39.083Z,2.50
2019-06-08T17:30:43.240Z,5.55
2019-06-08T17:32:47.281Z,3.37
2019-06-08T17:34:51.290Z,3.90
2019-06-08T17:36:55.297Z,5.40
2019-06-08T17:38:59.305Z,2.80
2019-06-08T17:41:04.532Z,3.85
2019-06-08T17:43:08.448Z,2.60
2019-06-08T17:45:12.869Z,4.72
2019-06-08T17:47:16.934Z,2.87
2019-06-08T17:49:22.826Z,3.65
2019-06-08T17:51:26.425Z,2.65
2019-06-08T17:53:32.750Z,1.45
2019-06-08T17:55:37.236Z,1.72
2019-06-08T17:57:49.512Z,1.70
2019-06-08T17:59:47.927Z,1.87
2019-06-08T18:01:51.907Z,2.00
2019-06-08T18:03:58.212Z,2.50
2019-06-08T18:06:02.139Z,1.95
2019-06-08T18:08:07.851Z,2.40
2019-06-08T18:10:11.709Z,5.15
2019-06-08T18:12:18.136Z,8.63
2019-06-08T18:14:21.567Z,12.40
2019-06-08T18:16:27.756Z,10.28
2019-06-08T18:18:31.218Z,16.27
2019-06-08T18:20:36.858Z,9.45
2019-06-08T18:22:42.857Z,9.80
2019-06-08T18:24:47.883Z,7.08
2019-06-08T18:26:53.903Z,5.28
2019-06-08T18:28:58.230Z,4.03
2019-06-08T18:31:02.269Z,20.35
2019-06-08T18:33:07.364Z,16.57
2019-06-08T18:35:11.576Z,4.20
2019-06-08T18:37:17.897Z,4.62
2019-06-08T18:39:21.745Z,4.62
2019-06-08T18:41:27.127Z,7.00
2019-06-08T18:43:31.232Z,7.35
2019-06-08T18:45:37.809Z,6.65
2019-06-08T18:47:41.981Z,7.97
2019-06-08T18:49:48.397Z,7.28
2019-06-08T18:51:54.107Z,5.00
2019-06-08T18:54:08.782Z,8.75
2019-06-08T18:56:04.044Z,6.00
2019-06-08T18:58:17.575Z,5.70
2019-06-08T19:00:13.805Z,4.33
2019-06-08T19:02:18.056Z,6.45
2019-06-08T19:04:22.120Z,4.15
2019-06-08T19:06:27.862Z,5.78
2019-06-08T19:08:31.729Z,12.23
2019-06-08T19:10:37.841Z,12.33
2019-06-08T19:12:43.250Z,10.23
2019-06-08T19:14:48.006Z,12.63
2019-06-08T19:16:54.752Z,15.83
2019-06-08T19:18:58.876Z,17.75
2019-06-08T19:21:02.886Z,22.17
2019-06-08T19:23:08.976Z,8.18
2019-06-08T19:25:12.371Z,3.87
2019-06-08T19:27:18.426Z,3.30
2019-06-08T19:29:21.928Z,4.20
2019-06-08T19:31:27.606Z,3.47
2019-06-08T19:33:31.538Z,3.65
2019-06-08T19:35:35.442Z,3.20
2019-06-08T19:37:39.698Z,2.95
2019-06-08T19:39:45.957Z,2.92
2019-06-08T19:41:50.507Z,3.30
2019-06-08T19:43:54.963Z,3.30
2019-06-08T19:45:59.210Z,3.62
2019-06-08T19:48:03.215Z,3.50
2019-06-08T19:50:08.340Z,4.00
2019-06-08T19:52:12.271Z,4.08
2019-06-08T19:54:18.354Z,3.55
2019-06-08T19:56:21.847Z,4.05
2019-06-08T19:58:28.177Z,4.20
2019-06-08T20:00:31.442Z,3.85
2019-06-08T20:02:35.529Z,4.15
2019-06-08T20:04:40.577Z,4.05
2019-06-08T20:06:45.555Z,4.45
2019-06-08T20:08:51.491Z,4.37
2019-06-08T20:10:57.477Z,4.10
2019-06-08T20:13:01.814Z,4.87
2019-06-08T20:15:08.522Z,4.25
2019-06-08T20:17:12.701Z,3.92
2019-06-08T20:19:17.612Z,4.35
2019-06-08T20:21:22.041Z,4.15
2019-06-08T20:23:27.577Z,4.67
2019-06-08T20:25:31.806Z,4.75
2019-06-08T20:27:37.257Z,4.20
2019-06-08T20:29:41.348Z,4.92
2019-06-08T20:31:50.383Z,4.75
2019-06-08T20:33:53.973Z,4.70
2019-06-08T20:35:58.586Z,5.12
2019-06-08T20:38:02.809Z,4.90
2019-06-08T20:40:13.624Z,4.50
2019-06-08T20:42:12.604Z,5.20
2019-06-08T20:44:16.674Z,5.65
2019-06-08T20:46:20.787Z,6.85
2019-06-08T20:48:27.348Z,7.47
2019-06-08T20:50:30.215Z,8.95
2019-06-08T20:52:34.754Z,10.85
2019-06-08T20:54:39.174Z,14.40
2019-06-08T20:56:43.215Z,23.07
2019-06-08T20:58:48.356Z,21.25
2019-06-08T21:00:52.772Z,23.55
2019-06-08T21:03:02.695Z,21.00
2019-06-08T21:05:02.900Z,20.40
2019-06-08T21:07:08.222Z,21.25
2019-06-08T21:09:12.299Z,21.73
2019-06-08T21:11:17.621Z,20.72
2019-06-08T21:13:21.723Z,18.75
2019-06-08T21:15:27.457Z,17.48
2019-06-08T21:17:31.206Z,16.52
2019-06-08T21:19:35.127Z,16.02
2019-06-08T21:21:39.024Z,15.98
2019-06-08T21:23:43.262Z,16.87
2019-06-08T21:25:50.228Z,15.53
2019-06-08T21:27:54.077Z,14.13
2019-06-08T21:30:06.657Z,14.73
2019-06-08T21:32:03.729Z,14.60
2019-06-08T21:34:07.661Z,12.68
2019-06-08T21:36:11.660Z,12.75
2019-06-08T21:38:23.224Z,14.78
2019-06-08T21:40:21.262Z,15.95
2019-06-08T21:42:27.641Z,15.35
2019-06-08T21:44:31.232Z,14.15
2019-06-08T21:46:37.927Z,12.58
2019-06-08T21:48:41.183Z,12.78
2019-06-08T21:50:47.639Z,12.07
2019-06-08T21:52:51.969Z,12.03
2019-06-08T21:54:58.896Z,11.25
2019-06-08T21:57:02.029Z,11.65
2019-06-08T21:59:07.815Z,11.25
2019-06-08T22:01:12.126Z,11.63
2019-06-08T22:03:17.569Z,12.65
2019-06-08T22:05:22.096Z,11.45
2019-06-08T22:07:28.265Z,12.95
2019-06-08T22:09:31.657Z,13.15
2019-06-08T22:11:37.612Z,12.82
2019-06-08T22:13:41.234Z,11.15
2019-06-08T22:15:47.310Z,11.10
2019-06-08T22:17:52.011Z,10.98
2019-06-08T22:19:59.532Z,11.95
2019-06-08T22:22:03.836Z,11.95
2019-06-08T22:24:08.098Z,12.10
2019-06-08T22:26:12.269Z,11.83
2019-06-08T22:28:17.691Z,11.30
2019-06-08T22:30:35.166Z,11.83
2019-06-08T22:32:27.936Z,10.90
2019-06-08T22:34:32.086Z,11.83
2019-06-08T22:36:37.276Z,12.15
2019-06-08T22:38:44.503Z,11.57
2019-06-08T22:40:48.510Z,11.50
2019-06-08T22:42:52.573Z,10.63
2019-06-08T22:44:59.212Z,9.75
2019-06-08T22:47:09.973Z,9.95
2019-06-08T22:49:15.323Z,8.18
2019-06-08T22:51:22.684Z,8.90
2019-06-08T22:53:27.704Z,8.93
2019-06-08T22:55:32.141Z,8.43
2019-06-08T22:57:37.705Z,8.45
2019-06-08T22:59:41.648Z,7.83
2019-06-08T23:01:47.589Z,8.03
2019-06-08T23:03:51.232Z,8.05
2019-06-08T23:05:59.254Z,8.70
2019-06-08T23:08:03.557Z,8.33
2019-06-08T23:10:09.034Z,7.92
2019-06-08T23:12:13.201Z,8.28
2019-06-08T23:14:18.031Z,7.70
2019-06-08T23:16:22.073Z,8.03
2019-06-08T23:18:25.999Z,8.23
2019-06-08T23:20:30.444Z,7.53
2019-06-08T23:22:38.185Z,7.60
2019-06-08T23:24:41.460Z,7.50
2019-06-08T23:26:48.053Z,7.70
2019-06-08T23:28:56.009Z,6.95
2019-06-08T23:31:11.849Z,7.60
2019-06-08T23:33:10.217Z,7.17
2019-06-08T23:35:11.618Z,8.15
2019-06-08T23:37:18.133Z,7.72
2019-06-08T23:39:21.171Z,7.78
2019-06-08T23:41:27.134Z,7.67
2019-06-08T23:43:34.201Z,7.87
2019-06-08T23:45:38.230Z,7.60
2019-06-08T23:47:42.259Z,7.60
2019-06-08T23:49:47.430Z,8.28
2019-06-08T23:51:51.564Z,8.33
2019-06-08T23:53:55.571Z,7.15
2019-06-08T23:56:01.031Z,7.47
2019-06-08T23:58:05.141Z,7.50
